Time;durP1;ratioP1;P1;durP2;ratioP2;P2;SDS_P1;SDS_P2;PMS_P1;PMS_P2;Temp;Humidity;BMP_temperature;BMP_pressure;BME280_temperature;BME280_humidity;BME280_pressure;Samples;Min_cycle;Max_cycle;Signal;HPM_P1;HPM_P2
2023/01/17 00:00:06;;;;;;;9.50;2.40;;;;;;;;;;10368380;28;20289;-45
2023/01/17 00:10:27;;;;;;;4.00;2.22;;;;;;;;;;10342324;28;20030;-45
2023/01/17 00:15:29;;;;;;;7.30;2.13;;;;;;;;;;10353169;28;20080;-45
2023/01/17 00:26:02;;;;;;;4.95;2.15;;;;;;;;;;10341852;28;20033;-45
2023/01/17 01:34:08;;;;;;;5.65;2.35;;;;;;;;;;10372842;28;20065;-46
2023/01/17 01:39:09;;;;;;;2.78;1.80;;;;;;;;;;10360223;28;20041;-45
2023/01/17 01:44:49;;;;;;;2.58;1.80;;;;;;;;;;10341988;28;20030;-45
2023/01/17 01:49:50;;;;;;;3.83;2.45;;;;;;;;;;10372737;28;20034;-45
2023/01/17 01:55:10;;;;;;;3.00;1.92;;;;;;;;;;10359738;28;20026;-45
2023/01/17 02:00:23;;;;;;;3.33;2.33;;;;;;;;;;10359925;28;20495;-45
2023/01/17 02:05:28;;;;;;;4.75;1.88;;;;;;;;;;10369079;28;20034;-45
2023/01/17 02:10:39;;;;;;;2.38;2.00;;;;;;;;;;10371622;28;20022;-46
2023/01/17 02:16:32;;;;;;;3.35;2.10;;;;;;;;;;10371614;28;20033;-45
2023/01/17 02:22:10;;;;;;;2.78;1.90;;;;;;;;;;10370654;28;20472;-45
2023/01/17 02:27:51;;;;;;;4.25;2.15;;;;;;;;;;10373960;28;20026;-47
2023/01/17 02:33:12;;;;;;;3.22;2.03;;;;;;;;;;10361537;28;20349;-59
2023/01/17 02:38:33;;;;;;;4.18;2.28;;;;;;;;;;10346857;28;20110;-58
2023/01/17 02:43:35;;;;;;;8.50;2.38;;;;;;;;;;10315847;28;20041;-57
2023/01/17 02:48:37;;;;;;;3.47;2.08;;;;;;;;;;10328219;28;20026;-58
2023/01/17 02:54:02;;;;;;;2.13;1.85;;;;;;;;;;10330680;28;20025;-57
2023/01/17 02:59:30;;;;;;;2.20;1.67;;;;;;;;;;10329078;28;20026;-57
2023/01/17 03:04:57;;;;;;;2.70;2.10;;;;;;;;;;10304375;28;20457;-57
2023/01/17 03:10:02;;;;;;;3.35;2.00;;;;;;;;;;10314981;28;20030;-57
2023/01/17 03:15:07;;;;;;;5.95;1.98;;;;;;;;;;10311136;28;20039;-58
2023/01/17 03:20:09;;;;;;;2.25;1.92;;;;;;;;;;10329286;28;20037;-55
2023/01/17 03:25:09;;;;;;;3.72;2.13;;;;;;;;;;10329402;28;20030;-58
2023/01/17 03:30:10;;;;;;;4.18;2.30;;;;;;;;;;10327283;28;20038;-56
2023/01/17 03:35:11;;;;;;;3.35;2.03;;;;;;;;;;10323724;28;20144;-58
2023/01/17 03:40:12;;;;;;;3.35;2.03;;;;;;;;;;10368714;28;20042;-56
2023/01/17 03:45:12;;;;;;;3.63;2.03;;;;;;;;;;10368901;28;20040;-57
2023/01/17 03:50:13;;;;;;;3.75;2.03;;;;;;;;;;10367423;28;20034;-58
2023/01/17 03:55:14;;;;;;;2.80;2.15;;;;;;;;;;10368025;28;20092;-58
2023/01/17 04:00:15;;;;;;;3.33;1.88;;;;;;;;;;10368845;28;20057;-58
2023/01/17 04:05:16;;;;;;;4.75;1.85;;;;;;;;;;10367106;28;20045;-57
2023/01/17 04:10:17;;;;;;;2.65;2.10;;;;;;;;;;10367866;28;20474;-56
2023/01/17 04:15:17;;;;;;;1.95;1.75;;;;;;;;;;10368100;28;20033;-56
2023/01/17 04:20:30;;;;;;;3.13;2.15;;;;;;;;;;10364318;28;20096;-55
2023/01/17 04:25:32;;;;;;;3.28;2.00;;;;;;;;;;10366246;28;20022;-55
2023/01/17 04:30:32;;;;;;;3.35;1.90;;;;;;;;;;10367224;28;20104;-54
2023/01/17 04:35:33;;;;;;;2.10;1.90;;;;;;;;;;10363474;28;20045;-57
2023/01/17 04:40:33;;;;;;;3.17;1.92;;;;;;;;;;10367189;28;20041;-56
2023/01/17 04:45:34;;;;;;;3.42;2.20;;;;;;;;;;10365783;28;20389;-55
2023/01/17 04:50:35;;;;;;;2.15;1.90;;;;;;;;;;10365604;28;20030;-54
2023/01/17 04:55:35;;;;;;;2.85;1.83;;;;;;;;;;10366967;28;20072;-58
2023/01/17 05:00:36;;;;;;;2.40;2.10;;;;;;;;;;10365872;28;20065;-56
2023/01/17 05:05:36;;;;;;;5.50;2.10;;;;;;;;;;10364207;28;20053;-57
2023/01/17 05:10:37;;;;;;;2.38;1.92;;;;;;;;;;10365891;28;20033;-56
2023/01/17 05:15:38;;;;;;;2.97;2.00;;;;;;;;;;10364370;28;20030;-57
2023/01/17 05:20:38;;;;;;;2.50;1.90;;;;;;;;;;10360313;28;20389;-58
2023/01/17 05:25:43;;;;;;;2.53;1.75;;;;;;;;;;10359537;28;20037;-56
2023/01/17 05:30:43;;;;;;;2.25;1.98;;;;;;;;;;10365931;28;20604;-58
2023/01/17 05:35:44;;;;;;;3.50;2.30;;;;;;;;;;10362977;28;20292;-56
2023/01/17 05:40:44;;;;;;;4.25;2.00;;;;;;;;;;10364361;28;20046;-57
2023/01/17 05:45:48;;;;;;;3.08;2.10;;;;;;;;;;10365289;28;20068;-57
2023/01/17 05:50:48;;;;;;;2.58;2.00;;;;;;;;;;10346377;28;20037;-58
2023/01/17 05:55:49;;;;;;;2.42;1.95;;;;;;;;;;10363824;28;20045;-57
2023/01/17 06:00:49;;;;;;;3.45;1.90;;;;;;;;;;10348507;28;20038;-57
2023/01/17 06:05:50;;;;;;;2.15;1.90;;;;;;;;;;10363779;28;20068;-57
2023/01/17 06:10:50;;;;;;;2.97;1.88;;;;;;;;;;10365216;28;20052;-58
2023/01/17 06:15:51;;;;;;;3.35;1.88;;;;;;;;;;10367816;28;20045;-56
2023/01/17 06:20:53;;;;;;;3.70;2.35;;;;;;;;;;10372219;28;20493;-57
2023/01/17 06:25:54;;;;;;;1.95;1.75;;;;;;;;;;10372216;28;20040;-58
2023/01/17 06:30:54;;;;;;;2.08;1.83;;;;;;;;;;10370452;28;20038;-58
2023/01/17 06:35:55;;;;;;;2.60;2.08;;;;;;;;;;10358613;28;20129;-57
2023/01/17 06:40:59;;;;;;;3.13;2.03;;;;;;;;;;10370716;28;20045;-55
2023/01/17 06:46:00;;;;;;;3.55;2.90;;;;;;;;;;10361062;28;20548;-54
2023/01/17 06:51:01;;;;;;;8.70;3.85;;;;;;;;;;10366225;28;20105;-54
2023/01/17 06:56:02;;;;;;;9.02;4.32;;;;;;;;;;10370470;28;20030;-58
2023/01/17 07:01:07;;;;;;;6.43;3.85;;;;;;;;;;10363908;28;20461;-49
2023/01/17 07:06:08;;;;;;;7.82;4.03;;;;;;;;;;10363061;28;20022;-57
2023/01/17 07:11:10;;;;;;;17.60;4.30;;;;;;;;;;10369009;28;20477;-58
2023/01/17 07:16:10;;;;;;;11.18;4.07;;;;;;;;;;10361799;28;20092;-56
2023/01/17 07:21:14;;;;;;;15.75;4.30;;;;;;;;;;10368554;28;20041;-53
2023/01/17 07:26:16;;;;;;;7.88;4.40;;;;;;;;;;10369275;28;20060;-58
2023/01/17 07:31:16;;;;;;;9.90;4.13;;;;;;;;;;10350450;28;20281;-56
2023/01/17 07:36:17;;;;;;;6.00;3.83;;;;;;;;;;10369365;28;20042;-55
2023/01/17 07:41:17;;;;;;;8.90;4.03;;;;;;;;;;10369345;28;20036;-58
2023/01/17 07:46:18;;;;;;;11.18;3.33;;;;;;;;;;10369100;28;20452;-57
2023/01/17 07:51:19;;;;;;;9.68;3.70;;;;;;;;;;10369934;28;20452;-57
2023/01/17 07:56:19;;;;;;;5.65;3.17;;;;;;;;;;10369490;28;20021;-55
2023/01/17 08:01:20;;;;;;;8.73;3.45;;;;;;;;;;10369076;28;20593;-57
2023/01/17 08:06:24;;;;;;;25.70;3.63;;;;;;;;;;10368721;28;20408;-57
2023/01/17 08:11:25;;;;;;;15.60;3.80;;;;;;;;;;10368569;28;20092;-55
2023/01/17 08:16:27;;;;;;;10.43;2.95;;;;;;;;;;10356158;28;20356;-58
2023/01/17 08:21:28;;;;;;;4.90;3.00;;;;;;;;;;10366277;28;20044;-58
2023/01/17 08:26:28;;;;;;;7.60;3.05;;;;;;;;;;10366088;28;20030;-57
2023/01/17 08:31:32;;;;;;;5.32;3.00;;;;;;;;;;10352543;28;20025;-57
2023/01/17 08:36:33;;;;;;;4.88;3.20;;;;;;;;;;10347727;28;20084;-59
2023/01/17 08:41:34;;;;;;;4.00;2.88;;;;;;;;;;10367194;28;20091;-56
2023/01/17 08:46:37;;;;;;;5.97;2.83;;;;;;;;;;10364510;28;20038;-58
2023/01/17 08:51:39;;;;;;;2.60;2.40;;;;;;;;;;10362751;28;20065;-53
2023/01/17 08:56:41;;;;;;;8.43;2.97;;;;;;;;;;10362562;28;20026;-58
2023/01/17 09:01:44;;;;;;;4.88;2.90;;;;;;;;;;10361546;28;20061;-56
2023/01/17 09:06:47;;;;;;;4.25;3.15;;;;;;;;;;10348775;28;20358;-56
2023/01/17 09:11:47;;;;;;;4.88;3.35;;;;;;;;;;10358839;28;20533;-57
2023/01/17 09:16:48;;;;;;;4.18;3.17;;;;;;;;;;10359697;28;20033;-56
2023/01/17 09:21:48;;;;;;;5.38;3.30;;;;;;;;;;10344168;28;20033;-55
2023/01/17 09:26:49;;;;;;;9.40;3.28;;;;;;;;;;10364185;28;20022;-57
2023/01/17 09:31:49;;;;;;;4.28;2.88;;;;;;;;;;10363354;28;20496;-57
2023/01/17 09:36:50;;;;;;;4.45;3.20;;;;;;;;;;10337468;28;20035;-57
2023/01/17 09:41:58;;;;;;;4.25;3.10;;;;;;;;;;10343500;28;20037;-56
2023/01/17 09:47:12;;;;;;;5.40;3.13;;;;;;;;;;10324114;28;20078;-56
2023/01/17 09:52:19;;;;;;;8.73;3.88;;;;;;;;;;10362909;28;20479;-58
2023/01/17 09:57:45;;;;;;;5.63;3.28;;;;;;;;;;10355223;28;20025;-52
2023/01/17 10:03:18;;;;;;;3.58;3.05;;;;;;;;;;10365919;28;20066;-52
2023/01/17 10:09:07;;;;;;;4.82;3.50;;;;;;;;;;10367194;28;20035;-59
2023/01/17 10:14:58;;;;;;;5.53;3.30;;;;;;;;;;10334398;28;20033;-55
2023/01/17 10:20:39;;;;;;;6.65;2.63;;;;;;;;;;10342799;28;20486;-55
2023/01/17 10:25:48;;;;;;;3.92;3.10;;;;;;;;;;10327338;28;20254;-57
2023/01/17 10:30:54;;;;;;;4.53;3.17;;;;;;;;;;10354785;28;20026;-57
2023/01/17 10:36:02;;;;;;;4.15;3.13;;;;;;;;;;10380581;23;20058;-65
2023/01/17 10:41:27;;;;;;;3.73;3.10;;;;;;;;;;10387588;28;20040;-65
2023/01/17 10:46:51;;;;;;;5.50;3.40;;;;;;;;;;10400900;28;20585;-65
2023/01/17 10:52:35;;;;;;;4.10;3.15;;;;;;;;;;10410704;28;20454;-64
2023/01/17 10:57:42;;;;;;;4.10;3.50;;;;;;;;;;10410774;28;20527;-48
2023/01/17 11:02:49;;;;;;;4.88;3.10;;;;;;;;;;10407449;28;20034;-63
2023/01/17 11:08:13;;;;;;;4.93;3.03;;;;;;;;;;10387096;28;20421;-67
2023/01/17 11:13:37;;;;;;;6.03;3.40;;;;;;;;;;10394948;28;20033;-63
2023/01/17 11:18:39;;;;;;;9.18;3.20;;;;;;;;;;10400676;28;20068;-64
2023/01/17 11:23:46;;;;;;;3.78;2.63;;;;;;;;;;10384776;28;20096;-52
2023/01/17 11:28:46;;;;;;;5.78;3.17;;;;;;;;;;10384788;28;20100;-66
2023/01/17 11:34:04;;;;;;;5.13;2.97;;;;;;;;;;10400621;28;20021;-66
2023/01/17 11:39:20;;;;;;;3.70;2.70;;;;;;;;;;10400270;28;20050;-66
2023/01/17 11:44:28;;;;;;;3.72;2.70;;;;;;;;;;10404776;28;20025;-65
2023/01/17 11:49:28;;;;;;;3.47;2.53;;;;;;;;;;10405709;28;20068;-66
2023/01/17 11:54:37;;;;;;;4.03;2.65;;;;;;;;;;10407483;28;20032;-63
2023/01/17 11:59:42;;;;;;;3.53;2.13;;;;;;;;;;10398969;28;20038;-65
2023/01/17 12:05:04;;;;;;;4.90;2.75;;;;;;;;;;10402814;28;20041;-65
2023/01/17 12:10:21;;;;;;;4.43;2.70;;;;;;;;;;10391053;28;20051;-62
2023/01/17 12:16:29;;;;;;;3.88;2.50;;;;;;;;;;10406545;28;20032;-61
2023/01/17 12:22:08;;;;;;;5.68;2.50;;;;;;;;;;10395716;28;20057;-64
2023/01/17 12:28:17;;;;;;;8.93;2.67;;;;;;;;;;10395894;28;20022;-67
2023/01/17 12:33:44;;;;;;;3.08;2.50;;;;;;;;;;10319830;28;20396;-67
2023/01/17 12:38:47;;;;;;;6.25;2.53;;;;;;;;;;10386894;28;20112;-67
2023/01/17 12:43:49;;;;;;;4.90;2.40;;;;;;;;;;10398531;28;20030;-66
2023/01/17 12:48:55;;;;;;;4.10;2.78;;;;;;;;;;10373853;28;20021;-62
2023/01/17 12:54:15;;;;;;;4.55;2.35;;;;;;;;;;10379393;28;20052;-63
2023/01/17 12:59:41;;;;;;;3.15;2.40;;;;;;;;;;10382420;28;20059;-67
2023/01/17 13:04:51;;;;;;;3.53;2.50;;;;;;;;;;10386392;28;20021;-66
2023/01/17 13:10:02;;;;;;;2.78;2.20;;;;;;;;;;10383538;28;20045;-55
2023/01/17 13:15:17;;;;;;;5.13;2.13;;;;;;;;;;10404265;28;20028;-60
2023/01/17 13:21:10;;;;;;;2.80;2.00;;;;;;;;;;10386768;28;20565;-63
2023/01/17 13:26:49;;;;;;;4.63;2.35;;;;;;;;;;10382432;28;20432;-66
2023/01/17 13:32:11;;;;;;;2.58;1.83;;;;;;;;;;10368851;28;20033;-66
2023/01/17 13:38:12;;;;;;;3.17;2.30;;;;;;;;;;10386189;28;20404;-56
2023/01/17 13:43:32;;;;;;;3.67;2.20;;;;;;;;;;10231469;28;20047;-66
2023/01/17 13:48:39;;;;;;;2.38;2.00;;;;;;;;;;10228659;28;20047;-46
2023/01/17 13:53:40;;;;;;;2.10;1.90;;;;;;;;;;10231573;28;20042;-66
2023/01/17 13:58:48;;;;;;;3.17;2.15;;;;;;;;;;10230923;28;20046;-45
2023/01/17 14:03:49;;;;;;;2.67;2.00;;;;;;;;;;10229352;28;20049;-62
2023/01/17 14:08:51;;;;;;;2.45;1.92;;;;;;;;;;10215899;28;20138;-48
2023/01/17 14:13:52;;;;;;;2.20;2.00;;;;;;;;;;10238324;28;20510;-49
2023/01/17 14:18:54;;;;;;;2.15;1.85;;;;;;;;;;10402613;28;20029;-51
2023/01/17 14:24:17;;;;;;;2.20;1.70;;;;;;;;;;10404062;28;20046;-66
2023/01/17 14:29:57;;;;;;;3.05;1.92;;;;;;;;;;10372964;28;20091;-51
2023/01/17 14:34:58;;;;;;;6.25;1.90;;;;;;;;;;10228253;28;20043;-55
2023/01/17 14:40:00;;;;;;;4.03;2.30;;;;;;;;;;10239995;28;20533;-61
2023/01/17 14:45:07;;;;;;;4.68;1.83;;;;;;;;;;10241628;28;20039;-66
2023/01/17 14:50:28;;;;;;;2.47;1.88;;;;;;;;;;10226481;28;20118;-65
2023/01/17 14:55:28;;;;;;;3.17;2.20;;;;;;;;;;10243967;28;20066;-66
2023/01/17 15:00:32;;;;;;;2.30;2.00;;;;;;;;;;10239345;28;20048;-59
2023/01/17 15:05:33;;;;;;;2.83;1.90;;;;;;;;;;10354948;28;20171;-62
2023/01/17 15:10:57;;;;;;;4.57;2.00;;;;;;;;;;10398512;28;20032;-61
2023/01/17 15:16:15;;;;;;;8.75;2.45;;;;;;;;;;10409125;28;20041;-65
2023/01/17 15:21:23;;;;;;;2.60;1.77;;;;;;;;;;10390938;28;20025;-65
2023/01/17 15:26:29;;;;;;;3.20;2.13;;;;;;;;;;10408422;28;20488;-60
2023/01/17 15:31:40;;;;;;;3.10;1.80;;;;;;;;;;10406212;28;20075;-58
2023/01/17 15:36:40;;;;;;;7.82;1.98;;;;;;;;;;10408647;28;20045;-65
2023/01/17 15:41:44;;;;;;;4.57;1.95;;;;;;;;;;10371176;28;20040;-62
2023/01/17 15:46:44;;;;;;;1.77;1.60;;;;;;;;;;10408009;28;20022;-54
2023/01/17 15:51:51;;;;;;;3.80;2.00;;;;;;;;;;10389356;28;20037;-66
2023/01/17 15:57:28;;;;;;;3.85;2.00;;;;;;;;;;10407159;28;20131;-56
2023/01/17 16:02:39;;;;;;;2.33;1.80;;;;;;;;;;10387032;28;20025;-63
2023/01/17 16:07:40;;;;;;;2.00;1.70;;;;;;;;;;10408821;28;20033;-55
2023/01/17 16:12:41;;;;;;;3.08;2.03;;;;;;;;;;10388818;28;20048;-67
2023/01/17 16:17:46;;;;;;;2.00;1.80;;;;;;;;;;10407302;28;20040;-57
2023/01/17 16:22:48;;;;;;;2.97;1.55;;;;;;;;;;10407476;28;20036;-66
2023/01/17 16:27:50;;;;;;;3.33;1.95;;;;;;;;;;10406063;28;20378;-66
2023/01/17 16:32:51;;;;;;;3.40;2.10;;;;;;;;;;10405770;28;20022;-66
2023/01/17 16:38:02;;;;;;;2.72;1.73;;;;;;;;;;10402856;28;20410;-66
2023/01/17 16:43:02;;;;;;;3.08;2.03;;;;;;;;;;10401402;28;20417;-66
2023/01/17 16:48:03;;;;;;;3.00;1.90;;;;;;;;;;10404745;28;20025;-66
2023/01/17 16:53:04;;;;;;;4.43;2.30;;;;;;;;;;10406208;28;20048;-66
2023/01/17 16:58:04;;;;;;;2.85;2.20;;;;;;;;;;10405329;28;20432;-61
2023/01/17 17:03:05;;;;;;;7.57;2.50;;;;;;;;;;10404777;28;20059;-61
2023/01/17 17:08:06;;;;;;;3.65;2.53;;;;;;;;;;10404090;28;20389;-65
2023/01/17 17:13:08;;;;;;;2.08;1.88;;;;;;;;;;10371258;28;20021;-52
2023/01/17 17:18:14;;;;;;;4.68;2.10;;;;;;;;;;10365238;28;20534;-62
2023/01/17 17:23:14;;;;;;;2.58;2.05;;;;;;;;;;10399589;28;20029;-60
2023/01/17 17:28:15;;;;;;;2.63;2.08;;;;;;;;;;10402146;28;20029;-65
2023/01/17 17:33:16;;;;;;;8.40;2.20;;;;;;;;;;10403967;28;20025;-61
2023/01/17 17:38:16;;;;;;;6.18;2.17;;;;;;;;;;10395933;28;20045;-61
2023/01/17 17:43:17;;;;;;;2.50;1.85;;;;;;;;;;10395247;28;20095;-58
2023/01/17 17:48:17;;;;;;;3.08;2.17;;;;;;;;;;10388214;28;20037;-53
2023/01/17 17:53:20;;;;;;;3.30;2.00;;;;;;;;;;10388409;28;20032;-64
2023/01/17 17:58:21;;;;;;;3.88;2.08;;;;;;;;;;10397599;28;20025;-65
2023/01/17 18:03:22;;;;;;;5.30;2.97;;;;;;;;;;10402931;28;20026;-65
2023/01/17 18:08:23;;;;;;;6.78;3.78;;;;;;;;;;10400128;28;20033;-60
2023/01/17 18:13:23;;;;;;;9.57;3.92;;;;;;;;;;10408615;28;20083;-67
2023/01/17 18:18:24;;;;;;;13.55;3.63;;;;;;;;;;10409597;28;20029;-58
2023/01/17 18:23:30;;;;;;;11.20;3.55;;;;;;;;;;10406227;28;20033;-54
2023/01/17 18:28:30;;;;;;;10.13;3.60;;;;;;;;;;10387008;28;20033;-63
2023/01/17 18:33:34;;;;;;;8.77;3.65;;;;;;;;;;10402211;28;20052;-62
2023/01/17 18:38:43;;;;;;;8.85;3.33;;;;;;;;;;10399332;28;20083;-65
2023/01/17 18:43:44;;;;;;;6.03;3.22;;;;;;;;;;10404170;28;20538;-64
2023/01/17 18:48:45;;;;;;;8.23;3.80;;;;;;;;;;10407083;28;20037;-65
2023/01/17 18:53:46;;;;;;;8.98;3.65;;;;;;;;;;10409139;28;20500;-65
2023/01/17 18:58:49;;;;;;;4.35;2.63;;;;;;;;;;10410339;28;20628;-53
2023/01/17 19:03:52;;;;;;;8.35;3.53;;;;;;;;;;10406682;28;20105;-65
2023/01/17 19:08:53;;;;;;;7.65;3.55;;;;;;;;;;10409322;28;20088;-65
2023/01/17 19:13:55;;;;;;;10.93;4.78;;;;;;;;;;10401452;28;20099;-51
2023/01/17 19:19:00;;;;;;;4.65;3.30;;;;;;;;;;10404887;28;20048;-61
2023/01/17 19:24:01;;;;;;;4.95;2.67;;;;;;;;;;10388938;28;20476;-63
2023/01/17 19:29:03;;;;;;;12.02;4.07;;;;;;;;;;10407175;28;20026;-65
2023/01/17 19:34:04;;;;;;;17.35;5.03;;;;;;;;;;10407742;28;20071;-59
2023/01/17 19:39:08;;;;;;;12.93;4.45;;;;;;;;;;10404262;28;20512;-66
2023/01/17 19:44:11;;;;;;;11.30;3.60;;;;;;;;;;10409155;28;20030;-66
2023/01/17 19:49:12;;;;;;;6.82;3.58;;;;;;;;;;10408814;28;20039;-64
2023/01/17 19:54:14;;;;;;;9.00;3.47;;;;;;;;;;10407360;28;20026;-56
2023/01/17 19:59:14;;;;;;;10.15;3.72;;;;;;;;;;10408240;28;20087;-60
2023/01/17 20:04:17;;;;;;;9.05;4.25;;;;;;;;;;10407234;28;20040;-55
2023/01/17 20:09:18;;;;;;;8.48;2.88;;;;;;;;;;10405839;28;20048;-59
2023/01/17 20:14:18;;;;;;;8.90;3.70;;;;;;;;;;10405629;28;20048;-47
2023/01/17 20:19:19;;;;;;;5.95;3.30;;;;;;;;;;10408298;28;20033;-52
2023/01/17 20:24:20;;;;;;;8.55;3.63;;;;;;;;;;10405377;28;20108;-66
2023/01/17 20:29:21;;;;;;;8.50;3.17;;;;;;;;;;10406732;28;20473;-66
2023/01/17 20:34:24;;;;;;;7.18;3.28;;;;;;;;;;10403967;28;20397;-67
2023/01/17 20:39:25;;;;;;;7.57;3.40;;;;;;;;;;10402213;28;20037;-67
2023/01/17 20:44:26;;;;;;;9.70;3.40;;;;;;;;;;10399612;28;20484;-66
2023/01/17 20:49:26;;;;;;;7.10;3.25;;;;;;;;;;10406277;28;20034;-66
2023/01/17 20:54:35;;;;;;;8.55;3.72;;;;;;;;;;10404921;28;20400;-49
2023/01/17 20:59:35;;;;;;;9.32;3.45;;;;;;;;;;10398190;28;20041;-66
2023/01/17 21:04:36;;;;;;;9.27;3.45;;;;;;;;;;10403875;28;20037;-67
2023/01/17 21:09:36;;;;;;;4.65;2.95;;;;;;;;;;10406034;28;20041;-67
2023/01/17 21:14:39;;;;;;;8.13;2.90;;;;;;;;;;10403637;28;20017;-67
2023/01/17 21:19:41;;;;;;;4.43;2.97;;;;;;;;;;10403737;28;20121;-60
2023/01/17 21:24:41;;;;;;;6.03;3.05;;;;;;;;;;10404138;28;20068;-58
2023/01/17 21:29:42;;;;;;;6.22;3.10;;;;;;;;;;10405349;28;20030;-63
2023/01/17 21:34:43;;;;;;;6.13;2.83;;;;;;;;;;10401415;28;20037;-61
2023/01/17 21:39:45;;;;;;;8.20;3.17;;;;;;;;;;10396252;28;20060;-63
2023/01/17 21:44:48;;;;;;;7.82;4.07;;;;;;;;;;10405795;28;20018;-56
2023/01/17 21:49:48;;;;;;;11.32;3.75;;;;;;;;;;10393072;28;20110;-61
2023/01/17 22:00:13;;;;;;;20.63;4.90;;;;;;;;;;10401175;28;20049;-48
2023/01/17 22:05:15;;;;;;;13.30;5.30;;;;;;;;;;10403182;28;20697;-48
2023/01/17 22:10:16;;;;;;;13.85;4.65;;;;;;;;;;10409406;28;20025;-59
2023/01/17 22:15:17;;;;;;;10.63;4.72;;;;;;;;;;10396972;28;20029;-66
2023/01/17 22:20:17;;;;;;;10.15;5.22;;;;;;;;;;10404906;28;20025;-60
2023/01/17 22:25:18;;;;;;;10.07;4.70;;;;;;;;;;10411705;28;20409;-65
2023/01/17 22:30:19;;;;;;;11.82;4.57;;;;;;;;;;10409666;28;20508;-64
2023/01/17 22:35:19;;;;;;;17.08;5.10;;;;;;;;;;10406331;28;20051;-65
2023/01/17 22:40:20;;;;;;;7.13;5.05;;;;;;;;;;10394113;28;20045;-65
2023/01/17 22:45:21;;;;;;;9.60;5.07;;;;;;;;;;10409780;28;20041;-65
2023/01/17 22:50:22;;;;;;;8.30;4.97;;;;;;;;;;10401585;28;20029;-57
2023/01/17 22:55:22;;;;;;;8.57;4.80;;;;;;;;;;10409863;28;20025;-64
2023/01/17 23:00:23;;;;;;;11.82;5.07;;;;;;;;;;10397763;28;20053;-58
2023/01/17 23:05:24;;;;;;;12.48;5.18;;;;;;;;;;10403167;28;20109;-65
2023/01/17 23:21:16;;;;;;;13.95;4.97;;;;;;;;;;10345763;28;20064;-46
2023/01/17 23:26:19;;;;;;;13.70;4.85;;;;;;;;;;10396290;28;20032;-55
2023/01/17 23:31:20;;;;;;;14.85;4.85;;;;;;;;;;10399035;28;20018;-59
2023/01/17 23:36:21;;;;;;;11.52;4.55;;;;;;;;;;10405358;28;20037;-55
2023/01/17 23:46:42;;;;;;;;;;;;;;;;;;10405768;28;20037;-58
2023/01/17 23:51:43;;;;;;;14.50;4.20;;;;;;;;;;10382869;28;19913;-57
2023/01/17 23:56:43;;;;;;;7.65;4.75;;;;;;;;;;10404664;28;20480;-59
